Danbury, CT (06810)

5:57 PM EST on February 14, 2016 (GMT -0500)
Western Connecticut State University | | Change Station
CLOSE
Current Station
Personal Weather Station
Location: Danbury, CT
Elevation: 382 ft
Nearby Weather Stations
Active Advisory: Winter Weather Advisory Active Notice: Record Report

Elev 382 ft 41.40 °N, 73.44 °W | Updated 14 minutes ago

Clear
Clear
9.1 °F
Feels Like 9 °F
N
2.0
Wind Variable Wind from WSW
Gusts 5.0 mph

Today
High -- | Low -- °F
--% Chance of Precip.
Yesterday
High -- | Low -- °F
Precip. -- in
Pressure 30.51 in
Visibility 10.0 miles
Clouds Clear
Windchill 9 °F
Dew Point -11 °F
Humidity 39%
Rainfall 0.00 in
Snow Depth Not available.
6:50 AM 5:25 PM
Waxing Crescent, 46% visible
METAR KDXR 142253Z 30003KT 10SM CLR M12/M27 A3047 RMK AO2 SLP331 T11221267
Pressure 30.51 in
Visibility 10.0 miles
Clouds Clear
Windchill 9 °F
Dew Point -11 °F
Humidity 39%
Rainfall 0.00 in
Snow Depth Not available.
6:50 AM 5:25 PM
Waxing Crescent, 46% visible
METAR KDXR 142253Z 30003KT 10SM CLR M12/M27 A3047 RMK AO2 SLP331 T11221267

10-Day Weather Forecast

Almanac

Astronomy

Feb. 14, 2016 Rise Set
Actual Time
Civil Twilight
Nautical Twilight
Astronomical Twilight
Moon
Length of Visible Light
Length of Day
Tomorrow will be .
, % of the Moon is Illuminated

Today's Extremes

State Highs State Lows

Community

WunderPhotos

Upload Photos

1,892,903 photos uploaded!

WunderBlog® & News

Nearby

Air Quality

  Air Quality AQ Index Pollutant
Not available.

Snow Depth

Station Depth Elevation

Earthquake Activity

City Distance Mag. Time & Date
Minimum magnitude displayed is 2.5.

Coastal Water Temperatures

Place Temperature

Stations

Nearby Weather Stations

Station Location Temp. Windchill Dew Point Humidity Wind Precip. Elev Updated Type
                   

Watches & Warnings

Winter Weather Advisory
Issued: 3:45 PM EST Feb. 14, 2016 – National Weather Service

... Winter Weather Advisory in effect from 1 PM Monday to 7 am EST
Tuesday...

The National Weather Service in Upton has issued a Winter Weather
Advisory for snow and freezing rain... which is in effect from 1
PM Monday to 7 am EST Tuesday.

* Locations... interior portions of southern Connecticut and the
lower Hudson Valley... and western Passaic and Bergen counties.

* Hazard types... snow and freezing rain.

* Accumulations... snow accumulation of 2 to 5 inches... along with
up to a tenth of an inch of ice.

* Timing... snow develops Monday afternoon... then gradually mixes
with and changes to freezing rain... then rain by early Tuesday
morning.

* Impacts... roads... especially elevated and untreated
surfaces... will become slippery... making travel difficult. This
wintry mix will impact the Monday evening commute.

Precautionary/preparedness actions...

A Winter Weather Advisory means that periods of snow... sleet... or
freezing rain will cause travel difficulties. Be prepared for
slippery roads and limited visibilities... and use caution while
driving.